Time;durP1;ratioP1;P1;durP2;ratioP2;P2;SDS_P1;SDS_P2;PMS_P1;PMS_P2;Temp;Humidity;BMP_temperature;BMP_pressure;BME280_temperature;BME280_humidity;BME280_pressure;Samples;Min_cycle;Max_cycle;Signal;HPM_P1;HPM_P2
2023/08/08 00:01:53;;;;;;;7.50;6.50;;;;;;;15.62;100.00;98715.48;106089;1256;67236;-76
2023/08/08 00:04:20;;;;;;;7.30;6.40;;;;;;;15.55;100.00;98721.54;106132;1256;72372;-74
2023/08/08 00:06:47;;;;;;;7.40;6.60;;;;;;;15.55;100.00;98723.10;106113;1254;61752;-74
2023/08/08 00:09:13;;;;;;;6.60;6.00;;;;;;;15.67;100.00;98727.58;106096;1250;60469;-76
2023/08/08 00:11:40;;;;;;;6.50;5.80;;;;;;;15.74;100.00;98727.46;106144;1251;72282;-74
2023/08/08 00:14:07;;;;;;;6.50;5.90;;;;;;;15.79;100.00;98724.45;106110;1256;67477;-74
2023/08/08 00:16:33;;;;;;;11.40;6.00;;;;;;;15.81;100.00;98722.67;106108;1255;72452;-77
2023/08/08 00:19:00;;;;;;;10.70;6.50;;;;;;;15.82;100.00;98722.10;106091;1251;61909;-75
2023/08/08 00:21:27;;;;;;;9.20;5.90;;;;;;;15.63;100.00;98725.05;106075;1251;60510;-74
2023/08/08 00:23:54;;;;;;;9.20;6.60;;;;;;;15.50;100.00;98725.92;106077;1253;74006;-75
2023/08/08 00:26:20;;;;;;;6.50;5.90;;;;;;;15.30;100.00;98731.85;106115;1253;68413;-76
2023/08/08 00:28:47;;;;;;;6.20;5.60;;;;;;;15.33;100.00;98733.61;106123;1253;71156;-74
2023/08/08 00:31:16;;;;;;;6.00;5.50;;;;;;;15.33;100.00;98736.91;106006;1258;60405;-75
2023/08/08 00:33:44;;;;;;;8.90;7.10;;;;;;;15.33;100.00;98738.91;106150;1255;60471;-74
2023/08/08 00:36:10;;;;;;;10.30;8.20;;;;;;;15.50;100.00;98740.59;106110;1254;73438;-76
2023/08/08 00:38:37;;;;;;;13.70;9.20;;;;;;;15.50;100.00;98737.08;106121;1255;67088;-75
2023/08/08 00:41:04;;;;;;;12.40;8.10;;;;;;;15.49;100.00;98734.93;106028;1256;72533;-75
2023/08/08 00:43:31;;;;;;;9.80;8.10;;;;;;;15.26;100.00;98732.15;106134;1250;61645;-74
2023/08/08 00:45:59;;;;;;;8.90;7.50;;;;;;;15.30;100.00;98735.10;106132;1256;60402;-74
2023/08/08 00:48:25;;;;;;;8.90;7.50;;;;;;;15.39;100.00;98737.10;106102;1253;71996;-73
2023/08/08 00:50:53;;;;;;;11.20;7.70;;;;;;;15.58;100.00;98738.30;105831;1251;68626;-79
2023/08/08 00:53:22;;;;;;;7.10;6.40;;;;;;;15.62;100.00;98733.95;105982;1253;72335;-78
2023/08/08 00:55:48;;;;;;;9.20;7.40;;;;;;;15.63;100.00;98733.84;105742;1258;61904;-79
2023/08/08 00:58:15;;;;;;;8.30;7.10;;;;;;;15.43;100.00;98738.62;106048;1251;60789;-75
2023/08/08 01:00:42;;;;;;;8.40;7.10;;;;;;;15.40;100.00;98740.85;106006;1258;73762;-77
2023/08/08 01:03:08;;;;;;;7.80;6.30;;;;;;;15.51;100.00;98743.59;106082;1255;67251;-76
2023/08/08 01:05:39;;;;;;;7.40;6.50;;;;;;;15.41;100.00;98741.81;105717;1259;72546;-76
2023/08/08 01:08:06;;;;;;;7.50;6.80;;;;;;;15.36;100.00;98745.39;106099;1252;61780;-75
2023/08/08 01:10:36;;;;;;;6.80;6.20;;;;;;;15.18;100.00;98744.16;106136;1251;60419;-76
2023/08/08 01:13:07;;;;;;;6.50;5.90;;;;;;;15.14;100.00;98746.73;106115;1254;73534;-75
2023/08/08 01:15:38;;;;;;;7.10;6.50;;;;;;;14.92;100.00;98742.59;106030;1254;67838;-76
2023/08/08 01:18:05;;;;;;;7.10;6.30;;;;;;;14.90;100.00;98741.02;106009;1254;72306;-75
2023/08/08 01:20:33;;;;;;;6.90;6.30;;;;;;;14.84;100.00;98746.44;106112;1256;60720;-77
2023/08/08 01:23:24;;;;;;;7.80;7.10;;;;;;;14.74;100.00;98746.90;106096;1251;60290;-78
2023/08/08 01:25:51;;;;;;;7.30;6.60;;;;;;;14.84;100.00;98740.50;106076;1253;72339;-76
2023/08/08 01:28:22;;;;;;;7.20;6.50;;;;;;;14.77;100.00;98748.38;106078;1255;68416;-75
2023/08/08 01:30:49;;;;;;;7.20;6.20;;;;;;;14.78;100.00;98751.52;106112;1253;72604;-78
2023/08/08 01:33:17;;;;;;;6.70;6.10;;;;;;;14.96;100.00;98748.67;106100;1252;60517;-73
2023/08/08 01:35:46;;;;;;;9.10;7.40;;;;;;;14.95;100.00;98745.66;106079;1256;60415;-75
2023/08/08 01:38:23;;;;;;;8.30;6.90;;;;;;;14.78;100.00;98749.37;106123;1251;73759;-74
2023/08/08 01:40:50;;;;;;;8.10;7.40;;;;;;;14.89;100.00;98761.64;106095;1251;68415;-74
2023/08/08 01:43:18;;;;;;;8.40;7.60;;;;;;;14.86;100.00;98769.32;106100;1253;72680;-73
2023/08/08 01:45:44;;;;;;;9.10;8.10;;;;;;;14.86;100.00;98772.02;106088;1255;60668;-73
2023/08/08 01:48:11;;;;;;;10.40;8.30;;;;;;;14.81;100.00;98774.64;106107;1251;60442;-75
2023/08/08 01:50:38;;;;;;;10.20;8.00;;;;;;;14.56;100.00;98770.52;106130;1255;73691;-74
2023/08/08 01:53:05;;;;;;;8.40;7.70;;;;;;;14.32;100.00;98772.23;106087;1253;66984;-76
2023/08/08 01:55:31;;;;;;;8.50;7.70;;;;;;;14.16;100.00;98777.96;106129;1255;70587;-75
2023/08/08 01:57:58;;;;;;;8.00;7.30;;;;;;;14.03;100.00;98776.36;106082;1253;61854;-75
2023/08/08 02:00:26;;;;;;;9.60;7.40;;;;;;;14.15;100.00;98775.83;106120;1250;60533;-75
2023/08/08 02:02:53;;;;;;;10.10;7.30;;;;;;;14.13;100.00;98777.00;106133;1254;73766;-74
2023/08/08 02:05:20;;;;;;;8.80;7.80;;;;;;;14.04;100.00;98779.63;106107;1253;68645;-73
2023/08/08 02:07:47;;;;;;;13.80;6.60;;;;;;;14.20;100.00;98783.52;106091;1250;71367;-75
2023/08/08 02:10:14;;;;;;;10.00;6.90;;;;;;;14.20;100.00;98778.19;106124;1250;61674;-75
2023/08/08 02:12:41;;;;;;;6.90;6.30;;;;;;;14.15;100.00;98783.16;106080;1254;60496;-75
2023/08/08 02:15:08;;;;;;;8.00;6.50;;;;;;;14.26;100.00;98785.14;106094;1256;73783;-76
2023/08/08 02:17:37;;;;;;;7.30;6.60;;;;;;;14.32;100.00;98792.39;106018;1256;68408;-74
2023/08/08 02:20:05;;;;;;;6.30;5.80;;;;;;;14.28;100.00;98793.95;106129;1253;70259;-75
2023/08/08 02:22:32;;;;;;;;;;;;;;;14.30;100.00;98794.05;106162;1252;60802;-75
2023/08/08 02:24:59;;;;;;;6.10;5.50;;;;;;;14.36;100.00;98800.84;106153;1253;60414;-75
2023/08/08 02:27:27;;;;;;;7.50;5.60;;;;;;;14.36;100.00;98796.83;105864;1261;73836;-75
2023/08/08 02:29:54;;;;;;;5.60;5.10;;;;;;;14.40;100.00;98802.05;106102;1256;68560;-76
2023/08/08 02:32:20;;;;;;;7.20;5.60;;;;;;;14.36;100.00;98804.89;106100;1255;72482;-76
2023/08/08 02:34:48;;;;;;;5.70;5.20;;;;;;;14.41;100.00;98806.86;106069;1256;60447;-74
2023/08/08 02:37:14;;;;;;;6.60;5.40;;;;;;;14.42;100.00;98805.10;106012;1251;60487;-76
2023/08/08 02:39:44;;;;;;;5.30;4.90;;;;;;;14.57;100.00;98812.16;106096;1256;73737;-74
2023/08/08 02:42:11;;;;;;;4.70;4.30;;;;;;;14.51;100.00;98818.89;105972;1253;68449;-75
2023/08/08 02:44:38;;;;;;;5.70;5.20;;;;;;;14.39;100.00;98821.35;106114;1254;71365;-75
2023/08/08 02:47:04;;;;;;;4.90;4.40;;;;;;;14.35;100.00;98826.45;106107;1253;60776;-75
2023/08/08 02:49:33;;;;;;;5.10;4.70;;;;;;;14.39;100.00;98827.84;106142;1255;60406;-75
2023/08/08 02:52:03;;;;;;;7.50;5.10;;;;;;;14.34;100.00;98830.56;106150;1253;72424;-75
2023/08/08 02:54:32;;;;;;;5.60;5.10;;;;;;;14.49;100.00;98832.42;106036;1253;68491;-75
2023/08/08 02:56:59;;;;;;;6.20;5.10;;;;;;;14.43;100.00;98835.66;106078;1255;71043;-75
2023/08/08 02:59:27;;;;;;;8.50;5.80;;;;;;;14.37;100.00;98840.99;106099;1250;61793;-76
2023/08/08 03:01:54;;;;;;;6.70;5.40;;;;;;;14.27;100.00;98843.75;106131;1251;60432;-74
2023/08/08 03:04:21;;;;;;;7.80;5.20;;;;;;;14.23;100.00;98845.10;105962;1253;126982;-74
2023/08/08 03:06:48;;;;;;;6.40;5.80;;;;;;;14.27;100.00;98846.65;106111;1254;67156;-74
2023/08/08 03:09:15;;;;;;;5.60;4.90;;;;;;;14.38;100.00;98848.14;106145;1256;72509;-74
2023/08/08 03:11:42;;;;;;;6.50;5.60;;;;;;;14.48;100.00;98853.93;106052;1254;60552;-75
2023/08/08 03:14:10;;;;;;;6.00;5.40;;;;;;;14.53;100.00;98858.29;106129;1251;60524;-75
2023/08/08 03:16:37;;;;;;;7.10;5.60;;;;;;;14.66;100.00;98859.48;105956;1254;72348;-74
2023/08/08 03:19:06;;;;;;;5.40;4.90;;;;;;;14.80;100.00;98860.63;106098;1254;68536;-74
2023/08/08 03:21:33;;;;;;;5.60;5.10;;;;;;;14.87;100.00;98857.41;105967;1257;72276;-79
2023/08/08 03:24:02;;;;;;;5.80;4.40;;;;;;;15.09;100.00;98861.23;106013;1250;61970;-76
2023/08/08 03:26:29;;;;;;;6.90;4.70;;;;;;;15.32;100.00;98862.11;105749;1254;60642;-75
2023/08/08 03:28:56;;;;;;;5.10;4.20;;;;;;;15.35;100.00;98866.39;105923;1257;73686;-73
2023/08/08 03:31:29;;;;;;;4.90;4.40;;;;;;;15.41;100.00;98861.93;106110;1251;68467;-75
2023/08/08 03:33:56;;;;;;;9.60;5.00;;;;;;;15.53;100.00;98872.28;106084;1256;71142;-74
2023/08/08 03:36:23;;;;;;;4.50;4.10;;;;;;;15.62;100.00;98881.44;106087;1251;60762;-74
2023/08/08 03:38:50;;;;;;;5.10;4.60;;;;;;;15.76;100.00;98881.23;106087;1251;60938;-75
2023/08/08 03:41:17;;;;;;;22.60;7.00;;;;;;;15.96;100.00;98883.87;105981;1254;73690;-76
2023/08/08 03:43:44;;;;;;;15.70;6.30;;;;;;;16.07;100.00;98887.02;106121;1253;68217;-77
2023/08/08 03:46:11;;;;;;;13.90;6.00;;;;;;;16.42;100.00;98894.86;106121;1253;72315;-75
2023/08/08 03:48:38;;;;;;;10.50;5.70;;;;;;;16.36;100.00;98896.48;106067;1253;61730;-76
2023/08/08 03:51:06;;;;;;;6.60;5.10;;;;;;;16.52;100.00;98898.38;105804;1260;60918;-75
2023/08/08 03:53:33;;;;;;;6.30;4.40;;;;;;;16.58;100.00;98899.55;106036;1256;74028;-75
2023/08/08 03:56:00;;;;;;;6.30;4.10;;;;;;;16.74;100.00;98904.11;106098;1253;68369;-75
2023/08/08 03:58:27;;;;;;;4.00;3.30;;;;;;;16.81;100.00;98911.49;106156;1254;72356;-75
2023/08/08 04:00:53;;;;;;;3.70;3.20;;;;;;;16.84;100.00;98915.52;106152;1253;61584;-72
2023/08/08 04:03:20;;;;;;;5.50;3.10;;;;;;;16.93;100.00;98918.45;106019;1250;60534;-75
2023/08/08 04:05:47;;;;;;;3.40;3.10;;;;;;;16.91;100.00;98921.59;106183;1255;72417;-76
2023/08/08 04:08:15;;;;;;;3.80;3.50;;;;;;;17.06;100.00;98927.59;106165;1253;67919;-74
2023/08/08 04:10:42;;;;;;;4.80;2.90;;;;;;;17.03;100.00;98936.58;106096;1251;72344;-74
2023/08/08 04:13:10;;;;;;;3.30;2.90;;;;;;;17.22;100.00;98937.30;106007;1253;61690;-74
2023/08/08 04:15:37;;;;;;;4.80;2.70;;;;;;;17.32;100.00;98940.50;106108;1255;60423;-75
2023/08/08 04:18:06;;;;;;;2.80;2.60;;;;;;;17.51;100.00;98938.46;106025;1257;73568;-76
2023/08/08 04:20:34;;;;;;;4.10;3.00;;;;;;;17.65;100.00;98938.51;106119;1256;68378;-74
2023/08/08 04:23:00;;;;;;;3.50;3.00;;;;;;;17.80;100.00;98939.21;106150;1254;72575;-74
2023/08/08 04:25:27;;;;;;;3.30;3.00;;;;;;;18.21;100.00;98937.95;106088;1256;61830;-75
2023/08/08 04:27:54;;;;;;;4.00;3.30;;;;;;;18.57;100.00;98936.88;106105;1253;60422;-78
2023/08/08 04:30:21;;;;;;;4.00;3.60;;;;;;;18.42;100.00;98940.38;106120;1252;73947;-78
2023/08/08 04:32:47;;;;;;;4.10;3.70;;;;;;;18.41;100.00;98944.44;106088;1255;67128;-75
2023/08/08 04:35:14;;;;;;;4.00;3.60;;;;;;;18.75;100.00;98943.81;106154;1255;71215;-79
2023/08/08 04:37:41;;;;;;;5.00;3.40;;;;;;;18.83;100.00;98949.02;106142;1256;60503;-76
2023/08/08 04:40:09;;;;;;;3.20;2.90;;;;;;;19.11;100.00;98956.95;105973;1251;60454;-76
2023/08/08 04:42:36;;;;;;;4.00;3.60;;;;;;;18.90;100.00;98960.61;106193;1256;73680;-72
2023/08/08 04:45:03;;;;;;;4.00;3.60;;;;;;;19.00;100.00;98975.73;106231;1254;68409;-76
2023/08/08 04:47:31;;;;;;;6.60;3.90;;;;;;;19.32;100.00;98988.18;106246;1264;72652;-75
2023/08/08 04:49:58;;;;;;;3.00;2.80;;;;;;;19.29;100.00;98996.98;106358;1255;61639;-76
2023/08/08 04:52:25;;;;;;;6.80;4.00;;;;;;;19.05;100.00;98998.02;106300;1251;60520;-74
2023/08/08 04:54:51;;;;;;;5.40;4.90;;;;;;;18.99;100.00;98998.37;106195;1252;73562;-75
2023/08/08 04:57:19;;;;;;;5.50;4.80;;;;;;;18.99;100.00;99000.50;106220;1254;68571;-75
2023/08/08 04:59:46;;;;;;;10.20;5.00;;;;;;;18.60;100.00;99004.12;106178;1255;72225;-77
2023/08/08 05:02:12;;;;;;;5.70;4.60;;;;;;;18.35;100.00;99000.80;106142;1251;62308;-77
2023/08/08 05:04:39;;;;;;;14.20;6.40;;;;;;;18.16;100.00;99001.21;106100;1251;60329;-78
2023/08/08 05:07:06;;;;;;;6.60;5.90;;;;;;;17.90;100.00;99005.45;106104;1256;73785;-79
2023/08/08 05:09:33;;;;;;;8.00;6.60;;;;;;;17.83;100.00;99013.08;106151;1256;68498;-77
2023/08/08 05:11:59;;;;;;;8.00;6.90;;;;;;;17.43;100.00;99012.14;106111;1256;72341;-75
2023/08/08 05:14:27;;;;;;;10.90;8.40;;;;;;;17.16;100.00;99012.40;105889;1256;61700;-77
2023/08/08 05:16:53;;;;;;;8.80;7.90;;;;;;;16.93;100.00;99010.86;106115;1251;60437;-76
2023/08/08 05:19:20;;;;;;;10.00;8.90;;;;;;;16.80;100.00;99009.55;106171;1254;72588;-78
2023/08/08 05:21:47;;;;;;;16.50;10.30;;;;;;;16.79;100.00;99006.80;106200;1256;68442;-78
2023/08/08 05:24:16;;;;;;;10.00;8.90;;;;;;;16.84;100.00;99010.23;106215;1256;72338;-77
2023/08/08 05:26:42;;;;;;;12.10;8.50;;;;;;;17.00;100.00;99013.75;106152;1251;61856;-77
2023/08/08 05:29:09;;;;;;;7.10;6.40;;;;;;;17.20;100.00;99019.20;105962;1254;60607;-77
2023/08/08 05:31:36;;;;;;;9.20;7.40;;;;;;;17.10;100.00;99021.30;106155;1251;73542;-76
2023/08/08 05:34:03;;;;;;;8.60;7.80;;;;;;;17.12;100.00;99023.52;105926;1257;67752;-79
2023/08/08 05:36:30;;;;;;;9.70;7.90;;;;;;;17.14;100.00;99026.78;106171;1255;72421;-76
2023/08/08 05:38:56;;;;;;;8.10;7.40;;;;;;;17.21;100.00;99028.61;106475;1256;61933;-79
2023/08/08 05:41:23;;;;;;;9.30;7.70;;;;;;;17.50;100.00;99033.13;106743;1251;60520;-79
2023/08/08 05:43:50;;;;;;;10.40;8.50;;;;;;;17.75;100.00;99035.07;106820;1256;73785;-78
2023/08/08 05:46:17;;;;;;;11.50;8.20;;;;;;;17.24;100.00;99036.98;106815;1264;67186;-77
2023/08/08 05:48:43;;;;;;;11.30;8.60;;;;;;;17.39;100.00;99036.34;106501;1256;72605;-77
2023/08/08 05:51:12;;;;;;;12.00;8.10;;;;;;;17.34;100.00;99029.47;106492;1256;61662;-78
2023/08/08 05:53:39;;;;;;;17.40;8.20;;;;;;;17.31;100.00;99027.70;106195;1251;60503;-79
2023/08/08 05:56:06;;;;;;;11.70;8.10;;;;;;;17.49;100.00;99032.49;106260;1256;73812;-79
2023/08/08 05:58:33;;;;;;;9.60;8.60;;;;;;;17.73;100.00;99036.05;106305;1255;68575;-76
2023/08/08 06:00:59;;;;;;;11.50;7.90;;;;;;;18.01;100.00;99038.75;106221;1251;72661;-77
2023/08/08 06:03:27;;;;;;;11.40;8.90;;;;;;;18.02;100.00;99040.34;105998;1256;61888;-77
2023/08/08 06:05:54;;;;;;;7.90;7.10;;;;;;;17.92;100.00;99042.30;106045;1256;60406;-79
2023/08/08 06:08:21;;;;;;;10.70;8.20;;;;;;;17.94;100.00;99046.02;106188;1256;72392;-79
2023/08/08 06:10:48;;;;;;;9.50;8.10;;;;;;;17.77;100.00;99047.59;106068;1261;68522;-76
2023/08/08 06:13:14;;;;;;;8.50;7.60;;;;;;;17.86;100.00;99049.81;106306;1257;72542;-78
2023/08/08 06:15:41;;;;;;;8.00;7.20;;;;;;;18.01;100.00;99046.73;106288;1251;61872;-77
2023/08/08 06:18:08;;;;;;;8.40;7.60;;;;;;;17.74;100.00;99043.93;106160;1256;60399;-78
2023/08/08 06:20:35;;;;;;;8.60;7.80;;;;;;;17.55;100.00;99043.31;106178;1255;73543;-76
2023/08/08 06:23:02;;;;;;;9.10;7.70;;;;;;;17.85;100.00;99039.20;106177;1256;68323;-75
2023/08/08 06:25:29;;;;;;;9.20;8.30;;;;;;;17.56;100.00;99042.04;106190;1251;72598;-77
2023/08/08 06:27:57;;;;;;;9.00;8.10;;;;;;;17.41;100.00;99047.52;106079;1256;61663;-76
2023/08/08 06:30:24;;;;;;;9.70;8.30;;;;;;;17.64;100.00;99048.27;106143;1252;60498;-77
2023/08/08 06:32:51;;;;;;;9.50;8.10;;;;;;;17.54;100.00;99051.64;106038;1256;73582;-76
2023/08/08 06:35:18;;;;;;;7.70;6.80;;;;;;;17.68;100.00;99057.23;106080;1255;68264;-77
2023/08/08 06:37:45;;;;;;;7.90;7.20;;;;;;;17.69;100.00;99055.73;106174;1251;72407;-75
2023/08/08 06:40:12;;;;;;;9.80;8.30;;;;;;;18.06;100.00;99061.93;106111;1264;60619;-76
2023/08/08 06:42:39;;;;;;;9.20;8.30;;;;;;;18.30;100.00;99067.19;105967;1251;60332;-77
2023/08/08 06:45:09;;;;;;;7.60;6.90;;;;;;;18.30;100.00;99070.52;106104;1255;73632;-76
2023/08/08 06:47:37;;;;;;;6.90;6.30;;;;;;;18.32;100.00;99075.35;106143;1256;68473;-77
2023/08/08 06:50:05;;;;;;;8.40;7.60;;;;;;;18.27;100.00;99078.59;106078;1251;71272;-76
2023/08/08 06:52:32;;;;;;;7.30;6.60;;;;;;;18.58;100.00;99081.75;106132;1257;60587;-78
2023/08/08 06:55:00;;;;;;;10.40;9.30;;;;;;;18.82;100.00;99084.41;106103;1251;60404;-76
2023/08/08 06:57:27;;;;;;;;;;;;;;;19.06;100.00;99092.73;106090;1255;73510;-78
2023/08/08 06:59:54;;;;;;;9.80;8.60;;;;;;;18.92;100.00;99093.66;106091;1257;68475;-76
2023/08/08 07:02:21;;;;;;;17.70;10.30;;;;;;;18.81;100.00;99094.55;106087;1256;72309;-77
2023/08/08 07:04:48;;;;;;;9.30;7.30;;;;;;;18.85;100.00;99094.36;106082;1256;61685;-75
2023/08/08 07:07:15;;;;;;;7.10;6.40;;;;;;;18.70;100.00;99096.93;106067;1256;60421;-76
2023/08/08 07:09:43;;;;;;;7.20;6.10;;;;;;;18.87;100.00;99094.36;106128;1255;73744;-76
2023/08/08 07:12:10;;;;;;;5.70;5.20;;;;;;;19.37;100.00;99093.93;105944;1256;68247;-77
2023/08/08 07:14:37;;;;;;;6.00;5.40;;;;;;;19.32;100.00;99096.19;106113;1263;71974;-78
2023/08/08 07:17:04;;;;;;;7.10;6.50;;;;;;;19.25;100.00;99088.70;106102;1251;61889;-77
2023/08/08 07:19:31;;;;;;;6.90;6.20;;;;;;;19.32;100.00;99087.10;106126;1256;60404;-75
2023/08/08 07:21:58;;;;;;;6.90;6.30;;;;;;;18.57;100.00;99079.07;105878;1252;73721;-76
2023/08/08 07:24:28;;;;;;;8.20;5.00;;;;;;;18.68;100.00;99077.09;106066;1256;68591;-76
2023/08/08 07:26:58;;;;;;;7.20;6.30;;;;;;;18.86;100.00;99075.20;106080;1251;71577;-74
2023/08/08 07:29:25;;;;;;;7.20;6.60;;;;;;;18.76;100.00;99075.93;106224;1251;61939;-74
2023/08/08 07:31:52;;;;;;;10.60;7.20;;;;;;;18.86;100.00;99079.02;106161;1256;60757;-77
2023/08/08 07:34:20;;;;;;;10.80;7.40;;;;;;;19.19;100.00;99088.16;106690;1256;73743;-77
2023/08/08 07:36:48;;;;;;;8.00;7.20;;;;;;;19.44;100.00;99084.31;106282;1251;68497;-76
2023/08/08 07:39:16;;;;;;;10.20;7.20;;;;;;;19.52;100.00;99090.36;106584;1251;72506;-76
2023/08/08 07:41:43;;;;;;;11.00;6.90;;;;;;;19.68;100.00;99093.30;106341;1251;61817;-75
2023/08/08 07:44:11;;;;;;;6.40;5.80;;;;;;;19.95;100.00;99089.11;106348;1256;60298;-76
2023/08/08 07:46:38;;;;;;;8.40;5.90;;;;;;;20.37;100.00;99099.12;106259;1256;73470;-77
2023/08/08 07:49:06;;;;;;;10.30;6.20;;;;;;;20.60;100.00;99101.80;106104;1251;68379;-78
2023/08/08 07:51:34;;;;;;;5.80;5.20;;;;;;;21.04;99.63;99103.11;106030;1251;71454;-77
2023/08/08 07:54:01;;;;;;;6.60;6.00;;;;;;;21.12;96.96;99102.02;105951;1251;62327;-78
2023/08/08 07:56:32;;;;;;;6.50;5.20;;;;;;;21.17;96.65;99102.88;106212;1251;60386;-77
2023/08/08 07:58:59;;;;;;;7.00;5.40;;;;;;;21.10;95.37;99102.64;106327;1256;74263;-77
2023/08/08 08:01:27;;;;;;;8.30;5.70;;;;;;;21.20;92.74;99106.51;106585;1256;69075;-76
2023/08/08 08:03:56;;;;;;;4.80;4.00;;;;;;;21.16;93.20;99106.23;106545;1251;70472;-79
2023/08/08 08:06:23;;;;;;;6.20;4.90;;;;;;;21.53;91.58;99109.60;106527;1255;61775;-76
2023/08/08 08:08:50;;;;;;;7.50;5.00;;;;;;;22.59;82.20;99108.95;106229;1254;60543;-77
2023/08/08 08:11:18;;;;;;;4.90;4.00;;;;;;;22.50;81.93;99111.27;106373;1255;73765;-77
2023/08/08 08:13:46;;;;;;;5.70;4.00;;;;;;;22.59;80.25;99111.61;106536;1251;67248;-77
2023/08/08 08:16:13;;;;;;;;;;;;;;;22.75;77.77;99107.16;106464;1253;71415;-78
2023/08/08 08:18:40;;;;;;;6.00;3.70;;;;;;;22.18;80.33;99105.16;106163;1251;60398;-76
2023/08/08 08:21:08;;;;;;;4.80;3.90;;;;;;;22.41;78.66;99108.15;106245;1251;60867;-80
2023/08/08 08:23:40;;;;;;;4.50;4.10;;;;;;;22.45;78.63;99109.28;106640;1256;73800;-79
2023/08/08 08:26:16;;;;;;;5.50;3.60;;;;;;;22.74;76.83;99108.20;106381;1257;68021;-78
2023/08/08 08:28:43;;;;;;;6.70;5.80;;;;;;;22.45;79.20;99108.44;106207;1257;72475;-77
2023/08/08 08:31:10;;;;;;;6.80;5.10;;;;;;;22.83;76.44;99111.14;106375;1251;61546;-75
2023/08/08 08:33:37;;;;;;;5.00;4.10;;;;;;;23.15;73.54;99114.29;106032;1256;60918;-77
2023/08/08 08:36:06;;;;;;;4.40;4.00;;;;;;;23.23;71.24;99116.52;106261;1251;73094;-79
2023/08/08 08:38:33;;;;;;;7.70;4.30;;;;;;;23.45;69.88;99112.34;106344;1251;68397;-78
2023/08/08 08:41:00;;;;;;;6.10;4.80;;;;;;;22.92;73.28;99109.05;106208;1251;72563;-78
2023/08/08 08:43:27;;;;;;;8.80;4.00;;;;;;;22.56;75.42;99110.11;106197;1256;60371;-76
2023/08/08 08:45:54;;;;;;;4.10;3.50;;;;;;;22.46;75.28;99115.27;105966;1254;60439;-79
2023/08/08 08:48:22;;;;;;;4.70;3.60;;;;;;;22.78;74.53;99114.73;106068;1257;74225;-78
2023/08/08 08:50:51;;;;;;;4.80;4.10;;;;;;;22.72;74.69;99114.80;106336;1251;68679;-75
2023/08/08 08:53:19;;;;;;;4.00;3.70;;;;;;;22.90;73.20;99115.58;105892;1261;72277;-76
2023/08/08 08:55:47;;;;;;;8.60;3.70;;;;;;;22.98;71.70;99110.63;106307;1256;60527;-77
2023/08/08 08:58:16;;;;;;;4.40;3.70;;;;;;;23.30;69.34;99112.17;105957;1251;60520;-77
2023/08/08 09:00:45;;;;;;;5.40;3.80;;;;;;;23.87;66.02;99117.84;106312;1251;73758;-77
2023/08/08 09:03:13;;;;;;;4.70;3.20;;;;;;;23.90;64.68;99111.96;106059;1260;68600;-78
2023/08/08 09:05:41;;;;;;;11.20;3.40;;;;;;;23.93;65.52;99106.48;106126;1256;72629;-77
2023/08/08 09:08:09;;;;;;;;;;;;;;;23.99;64.65;99107.88;106184;1255;61749;-80
2023/08/08 09:10:36;;;;;;;5.40;3.60;;;;;;;24.05;63.59;99110.37;106090;1255;60527;-78
2023/08/08 09:13:03;;;;;;;6.60;3.50;;;;;;;24.00;61.82;99111.42;105861;1257;73725;-78
2023/08/08 09:15:37;;;;;;;4.70;3.20;;;;;;;24.31;61.46;99114.52;106081;1251;68616;-79
2023/08/08 09:18:04;;;;;;;4.10;3.10;;;;;;;24.29;59.84;99115.48;106105;1256;72429;-77
2023/08/08 09:20:32;;;;;;;4.20;2.80;;;;;;;24.27;59.47;99115.20;106143;1251;60540;-75
2023/08/08 09:22:59;;;;;;;6.10;3.10;;;;;;;24.44;58.69;99109.34;106084;1250;60629;-77
2023/08/08 09:25:26;;;;;;;2.60;2.40;;;;;;;24.78;57.39;99109.02;106139;1256;73654;-76
2023/08/08 09:27:53;;;;;;;3.20;2.90;;;;;;;24.49;56.17;99099.49;106232;1257;67651;-74
2023/08/08 09:30:20;;;;;;;3.50;2.80;;;;;;;23.92;59.17;99102.08;106176;1257;72944;-80
2023/08/08 09:32:47;;;;;;;5.90;3.20;;;;;;;24.43;58.09;99104.94;106069;1251;60480;-79
2023/08/08 09:35:15;;;;;;;3.50;2.70;;;;;;;25.15;55.50;99109.62;106117;1251;60514;-78
2023/08/08 09:37:42;;;;;;;3.90;2.90;;;;;;;25.76;52.05;99116.36;105876;1260;73685;-78
2023/08/08 09:40:11;;;;;;;6.00;2.70;;;;;;;25.63;51.27;99113.92;106133;1251;68490;-77
2023/08/08 09:42:38;;;;;;;4.50;2.90;;;;;;;25.61;50.28;99120.39;106085;1251;72762;-79
2023/08/08 09:45:06;;;;;;;4.30;2.40;;;;;;;25.55;51.19;99118.24;105786;1251;60553;-78
2023/08/08 09:47:33;;;;;;;2.40;2.20;;;;;;;25.49;50.60;99113.58;105941;1254;60399;-79
2023/08/08 09:50:06;;;;;;;5.50;2.50;;;;;;;24.86;51.76;99113.25;106124;1260;73641;-75
2023/08/08 09:52:37;;;;;;;3.00;2.20;;;;;;;24.87;52.37;99111.77;106382;1251;67191;-78
2023/08/08 09:55:04;;;;;;;4.30;3.30;;;;;;;24.17;54.90;99112.55;106322;1254;73214;-78
2023/08/08 09:57:33;;;;;;;3.20;2.90;;;;;;;24.67;55.24;99115.19;106058;1251;60540;-79
2023/08/08 10:00:00;;;;;;;6.30;3.90;;;;;;;24.88;54.00;99115.27;106335;1251;60296;-78
2023/08/08 10:02:30;;;;;;;5.10;3.20;;;;;;;24.70;54.32;99116.35;106270;1251;73734;-80
2023/08/08 10:05:01;;;;;;;2.70;2.50;;;;;;;24.50;55.39;99119.99;106008;1260;68666;-80
2023/08/08 10:07:30;;;;;;;2.90;2.70;;;;;;;24.46;56.47;99117.63;106071;1255;72698;-79
2023/08/08 10:09:57;;;;;;;5.20;3.20;;;;;;;24.75;56.20;99118.27;106183;1253;60537;-80
2023/08/08 10:12:25;;;;;;;4.60;3.30;;;;;;;25.18;53.82;99115.88;106228;1251;60425;-77
2023/08/08 10:14:52;;;;;;;4.60;2.90;;;;;;;25.81;50.71;99118.33;106074;1251;73771;-78
2023/08/08 10:17:19;;;;;;;3.20;2.90;;;;;;;25.88;48.59;99122.30;106231;1256;68430;-80
2023/08/08 10:19:54;;;;;;;2.10;1.90;;;;;;;25.51;48.52;99123.83;106327;1251;72596;-81
2023/08/08 10:22:23;;;;;;;2.20;2.00;;;;;;;25.13;49.10;99121.83;105908;1251;60538;-79
2023/08/08 10:24:53;;;;;;;4.80;2.90;;;;;;;25.10;48.93;99123.09;106284;1251;60441;-81
2023/08/08 10:27:28;;;;;;;4.50;2.60;;;;;;;24.38;50.98;99121.34;105994;1251;74011;-79
2023/08/08 10:30:01;;;;;;;3.00;2.60;;;;;;;23.92;51.60;99115.84;106406;1251;68697;-79
2023/08/08 10:32:47;;;;;;;2.90;2.30;;;;;;;23.91;52.25;99114.10;107243;1257;71177;-79
2023/08/08 10:35:55;;;;;;;3.30;2.60;;;;;;;24.54;50.23;99117.80;105900;1257;60483;-81
2023/08/08 10:38:27;;;;;;;4.70;2.70;;;;;;;25.54;48.45;99123.16;105695;1258;60500;-80
2023/08/08 10:40:59;;;;;;;3.10;1.90;;;;;;;25.76;45.97;99127.98;105583;1263;74115;-79
2023/08/08 10:43:27;;;;;;;6.10;1.70;;;;;;;25.80;44.67;99128.90;105431;1260;67659;-76
2023/08/08 10:46:02;;;;;;;20.20;3.70;;;;;;;25.88;44.80;99126.38;105434;1259;71476;-78
2023/08/08 10:48:50;;;;;;;3.40;2.60;;;;;;;26.24;43.83;99124.86;106542;1260;60495;-80
2023/08/08 10:51:19;;;;;;;2.40;2.20;;;;;;;26.91;42.95;99129.38;105535;1260;60491;-81
2023/08/08 10:53:46;;;;;;;2.20;1.70;;;;;;;27.00;42.29;99131.45;105522;1257;73764;-81
2023/08/08 10:56:13;;;;;;;3.80;1.80;;;;;;;27.08;41.37;99131.71;105717;1256;68489;-78
2023/08/08 10:58:41;;;;;;;6.50;1.60;;;;;;;26.75;41.94;99123.97;105756;1258;72643;-80
2023/08/08 11:01:09;;;;;;;2.40;1.80;;;;;;;26.35;42.95;99131.85;105814;1255;60618;-82
2023/08/08 11:03:39;;;;;;;2.10;1.50;;;;;;;25.68;43.45;99124.84;105986;1256;60592;-78
2023/08/08 11:06:08;;;;;;;4.10;1.70;;;;;;;26.09;43.46;99116.30;107190;1256;73823;-79
2023/08/08 11:08:38;;;;;;;3.20;2.00;;;;;;;26.71;42.15;99116.74;107915;1256;68612;-80
2023/08/08 11:11:06;;;;;;;2.30;1.50;;;;;;;27.06;41.28;99119.80;106471;1254;71489;-80
2023/08/08 11:13:33;;;;;;;2.90;1.70;;;;;;;26.97;40.92;99114.90;106404;1251;60540;-81
2023/08/08 11:16:03;;;;;;;1.40;1.20;;;;;;;26.94;39.47;99114.39;106153;1254;60432;-80
2023/08/08 11:18:30;;;;;;;7.60;2.40;;;;;;;26.79;39.78;99118.52;106184;1256;74168;-80
2023/08/08 11:20:57;;;;;;;5.90;1.80;;;;;;;26.57;40.26;99116.23;106125;1251;68682;-82
2023/08/08 11:23:39;;;;;;;4.00;1.80;;;;;;;26.87;39.83;99117.61;106152;1254;71886;-81